Time;durP1;ratioP1;P1;durP2;ratioP2;P2;SDS_P1;SDS_P2;PMS_P1;PMS_P2;Temp;Humidity;BMP_temperature;BMP_pressure;BME280_temperature;BME280_humidity;BME280_pressure;Samples;Min_cycle;Max_cycle;Signal;HPM_P1;HPM_P2
2022/11/18 00:01:12;;;;;;;10.52;3.95;;;8.90;99.90;;;;;;5094538;28;20024;-76
2022/11/18 00:03:38;;;;;;;9.57;3.58;;;8.90;99.90;;;;;;5092285;28;20476;-78
2022/11/18 00:06:05;;;;;;;9.48;3.20;;;8.90;99.90;;;;;;5095463;28;20023;-77
2022/11/18 00:08:31;;;;;;;8.63;3.45;;;8.90;99.90;;;;;;5087838;28;20491;-78
2022/11/18 00:10:57;;;;;;;7.85;3.15;;;8.90;99.90;;;;;;5116242;27;20020;-78
2022/11/18 00:16:11;;;;;;;9.35;3.25;;;8.80;99.90;;;;;;5097982;28;20066;-78
2022/11/18 00:18:37;;;;;;;9.27;3.28;;;8.80;99.90;;;;;;5090263;28;20110;-77
2022/11/18 00:21:10;;;;;;;7.25;3.40;;;8.80;99.90;;;;;;5094776;28;20024;-78
2022/11/18 00:23:37;;;;;;;8.02;2.80;;;8.80;99.90;;;;;;5108153;28;20027;-77
2022/11/18 00:26:03;;;;;;;7.80;3.60;;;8.80;99.90;;;;;;5099875;28;20028;-78
2022/11/18 00:28:30;;;;;;;6.80;3.67;;;8.80;99.90;;;;;;5095297;28;20020;-77
2022/11/18 00:31:05;;;;;;;6.75;3.65;;;8.80;99.90;;;;;;5097771;28;20066;-78
2022/11/18 00:33:31;;;;;;;9.88;3.42;;;8.80;99.90;;;;;;5114439;28;20453;-77
2022/11/18 00:35:57;;;;;;;9.45;3.38;;;8.80;99.90;;;;;;5099956;28;20024;-78
2022/11/18 00:38:23;;;;;;;11.02;4.00;;;8.80;99.90;;;;;;5093720;28;20038;-78
2022/11/18 00:40:49;;;;;;;7.57;3.50;;;8.80;99.90;;;;;;5090235;28;20020;-78
2022/11/18 00:43:15;;;;;;;7.72;3.35;;;8.80;99.90;;;;;;5095012;28;20026;-78
2022/11/18 00:45:42;;;;;;;8.45;3.78;;;8.80;99.90;;;;;;5095189;28;20459;-76
2022/11/18 00:48:08;;;;;;;10.73;3.95;;;8.80;99.90;;;;;;5094906;28;20107;-78
2022/11/18 00:50:34;;;;;;;8.68;3.95;;;8.80;99.90;;;;;;5094659;28;20095;-79
2022/11/18 00:52:59;;;;;;;9.00;4.07;;;8.70;99.90;;;;;;5093876;28;20079;-77
2022/11/18 00:55:25;;;;;;;6.82;3.72;;;8.70;99.90;;;;;;5093501;28;20024;-77
2022/11/18 00:57:50;;;;;;;11.23;4.38;;;8.70;99.90;;;;;;5094494;28;20036;-77
2022/11/18 01:00:16;;;;;;;13.00;4.90;;;8.70;99.90;;;;;;5088922;28;20107;-78
2022/11/18 01:02:42;;;;;;;11.48;4.82;;;8.70;99.90;;;;;;5107388;28;20019;-77
2022/11/18 01:05:08;;;;;;;11.65;4.70;;;8.60;99.90;;;;;;5110319;28;20058;-77
2022/11/18 01:07:33;;;;;;;11.20;4.93;;;8.60;99.90;;;;;;5094081;28;20045;-77
2022/11/18 01:09:59;;;;;;;13.27;4.68;;;8.60;99.90;;;;;;5091819;28;20020;-78
2022/11/18 01:15:08;;;;;;;11.02;5.30;;;8.50;99.90;;;;;;5094536;28;20471;-78
2022/11/18 01:17:34;;;;;;;10.77;5.18;;;8.50;99.90;;;;;;5088962;28;20032;-77
2022/11/18 01:19:59;;;;;;;14.20;6.10;;;8.40;99.90;;;;;;5094154;28;20028;-78
2022/11/18 01:22:25;;;;;;;15.23;5.75;;;8.40;99.90;;;;;;5092944;28;20020;-77
2022/11/18 01:24:51;;;;;;;9.80;5.15;;;8.40;99.90;;;;;;5094389;28;20015;-77
2022/11/18 01:27:16;;;;;;;14.63;5.60;;;8.30;99.90;;;;;;5093983;28;20076;-78
2022/11/18 01:29:42;;;;;;;15.60;5.82;;;8.30;99.90;;;;;;5093410;28;20032;-76
2022/11/18 01:32:07;;;;;;;14.15;5.88;;;8.30;99.90;;;;;;5106220;28;20075;-78
2022/11/18 01:34:33;;;;;;;15.02;5.95;;;8.30;99.90;;;;;;5100776;28;20016;-76
2022/11/18 01:36:58;;;;;;;14.50;6.30;;;8.20;99.90;;;;;;5093262;28;20427;-79
2022/11/18 01:39:24;;;;;;;11.77;5.95;;;8.20;99.90;;;;;;5093498;28;20523;-79
2022/11/18 01:41:50;;;;;;;12.32;6.07;;;8.20;99.90;;;;;;5092524;28;20030;-78
2022/11/18 01:44:53;;;;;;;14.60;6.35;;;8.20;99.90;;;;;;5091078;28;20024;-79
2022/11/18 01:47:19;;;;;;;12.38;5.65;;;8.20;99.90;;;;;;5093778;28;20020;-79
2022/11/18 01:49:45;;;;;;;13.98;6.03;;;8.20;99.90;;;;;;5094118;28;20028;-78
2022/11/18 01:52:11;;;;;;;14.55;6.15;;;8.10;99.90;;;;;;5091763;28;20035;-78
2022/11/18 01:54:42;;;;;;;13.38;6.18;;;8.10;99.90;;;;;;5094018;28;20047;-80
2022/11/18 01:57:12;;;;;;;12.70;5.68;;;8.10;99.90;;;;;;5092820;28;20046;-77
2022/11/18 01:59:41;;;;;;;11.43;5.63;;;8.10;99.90;;;;;;5091727;28;20361;-78
2022/11/18 02:02:10;;;;;;;17.08;7.35;;;8.10;99.90;;;;;;5096606;28;20022;-77
2022/11/18 02:04:38;;;;;;;14.77;6.70;;;8.10;99.90;;;;;;5114214;28;20081;-79
2022/11/18 02:07:04;;;;;;;14.82;6.28;;;8.10;99.90;;;;;;5112117;28;20476;-78
2022/11/18 02:09:29;;;;;;;18.27;7.28;;;8.10;99.90;;;;;;5093197;28;20020;-78
2022/11/18 02:11:55;;;;;;;14.43;6.60;;;8.10;99.90;;;;;;5093412;28;20080;-78
2022/11/18 02:14:33;;;;;;;18.77;7.63;;;8.10;99.90;;;;;;5093511;28;20383;-76
2022/11/18 02:17:30;;;;;;;17.88;7.57;;;8.10;99.90;;;;;;5091661;28;20027;-77
2022/11/18 02:20:07;;;;;;;17.05;6.95;;;8.10;99.90;;;;;;5087795;28;20031;-77
2022/11/18 02:22:56;;;;;;;17.08;8.30;;;8.10;99.90;;;;;;5072837;28;20103;-77
2022/11/18 02:25:24;;;;;;;15.68;7.78;;;8.10;99.90;;;;;;5073033;28;20024;-78
2022/11/18 02:28:16;;;;;;;18.48;8.05;;;8.10;99.90;;;;;;5075402;28;20029;-77
2022/11/18 02:31:01;;;;;;;15.57;6.97;;;8.10;99.90;;;;;;5092777;28;20044;-77
2022/11/18 02:33:42;;;;;;;17.73;7.72;;;8.10;99.90;;;;;;5107709;28;20028;-78
2022/11/18 02:36:15;;;;;;;18.45;8.15;;;8.10;99.90;;;;;;5076328;28;20063;-78
2022/11/18 02:38:45;;;;;;;23.73;9.45;;;8.10;99.90;;;;;;5083988;28;20024;-78
2022/11/18 02:41:22;;;;;;;17.90;8.77;;;8.10;99.90;;;;;;5093080;28;20020;-78
2022/11/18 02:43:54;;;;;;;18.98;7.93;;;8.10;99.90;;;;;;5094671;28;20341;-78
2022/11/18 02:46:25;;;;;;;18.60;8.30;;;8.10;99.90;;;;;;5097401;28;20081;-78
2022/11/18 02:48:53;;;;;;;20.88;8.95;;;8.10;99.90;;;;;;5095557;28;20031;-79
2022/11/18 02:51:23;;;;;;;18.40;7.97;;;8.10;99.90;;;;;;5096993;28;20032;-78
2022/11/18 02:53:50;;;;;;;15.90;7.32;;;8.10;99.90;;;;;;5097454;28;20116;-77
2022/11/18 02:56:18;;;;;;;18.02;7.80;;;8.00;99.90;;;;;;5096666;28;20027;-78
2022/11/18 02:58:44;;;;;;;17.88;7.90;;;8.00;99.90;;;;;;5097942;28;20040;-78
2022/11/18 03:01:18;;;;;;;17.98;8.15;;;8.00;99.90;;;;;;5098573;28;20032;-79
2022/11/18 03:03:44;;;;;;;17.52;8.30;;;8.00;99.90;;;;;;5097205;28;20028;-78
2022/11/18 03:06:26;;;;;;;19.02;9.23;;;7.90;99.90;;;;;;5096742;28;20031;-79
2022/11/18 03:09:03;;;;;;;20.08;8.45;;;7.90;99.90;;;;;;5096836;28;20031;-79
2022/11/18 03:11:36;;;;;;;18.17;8.02;;;7.90;99.90;;;;;;5076448;28;20032;-79
2022/11/18 03:14:07;;;;;;;22.42;8.35;;;7.80;99.90;;;;;;5076140;28;20353;-79
2022/11/18 03:16:43;;;;;;;19.77;7.93;;;7.80;99.90;;;;;;5080972;28;20023;-78
2022/11/18 03:19:38;;;;;;;25.42;9.98;;;7.80;99.90;;;;;;5095017;28;20044;-78
2022/11/18 03:22:38;;;;;;;20.77;8.50;;;7.80;99.90;;;;;;5094377;28;20142;-79
2022/11/18 03:25:12;;;;;;;19.23;7.30;;;7.80;99.90;;;;;;5096837;28;20169;-78
2022/11/18 03:28:05;;;;;;;20.67;9.68;;;7.70;99.90;;;;;;5096677;28;20016;-78
2022/11/18 03:30:35;;;;;;;17.35;8.43;;;7.70;99.90;;;;;;5096416;28;20031;-78
2022/11/18 03:33:09;;;;;;;21.85;9.75;;;7.70;99.90;;;;;;5097125;28;20111;-78
2022/11/18 03:35:38;;;;;;;20.90;9.75;;;7.70;99.90;;;;;;5096950;28;20075;-78
2022/11/18 03:38:08;;;;;;;22.00;9.18;;;7.70;99.90;;;;;;5095853;28;20102;-78
2022/11/18 03:40:36;;;;;;;24.25;10.20;;;7.70;99.90;;;;;;5111086;27;20051;-78
2022/11/18 03:43:07;;;;;;;24.45;9.93;;;7.70;99.90;;;;;;5096663;28;20085;-78
2022/11/18 03:45:41;;;;;;;21.13;10.25;;;7.70;99.90;;;;;;5095901;28;20546;-78
2022/11/18 03:48:16;;;;;;;21.90;10.35;;;7.70;99.90;;;;;;5095781;28;20028;-79
2022/11/18 03:50:46;;;;;;;25.13;11.57;;;7.70;99.90;;;;;;5092047;28;20554;-77
2022/11/18 03:53:14;;;;;;;26.63;11.23;;;7.70;99.90;;;;;;5095421;28;20028;-78
2022/11/18 03:55:47;;;;;;;23.10;10.02;;;7.80;99.90;;;;;;5094555;28;20069;-77
2022/11/18 03:58:35;;;;;;;24.23;10.75;;;7.80;99.90;;;;;;5094236;28;20535;-77
2022/11/18 04:01:08;;;;;;;26.33;10.68;;;7.80;99.90;;;;;;5090708;28;20024;-77
2022/11/18 04:03:34;;;;;;;25.23;11.00;;;7.80;99.90;;;;;;5088267;28;20030;-77
2022/11/18 04:06:12;;;;;;;25.70;10.40;;;7.80;99.90;;;;;;5095103;28;20024;-76
2022/11/18 04:08:41;;;;;;;24.35;11.18;;;7.80;99.90;;;;;;5095623;28;20028;-78
2022/11/18 04:14:17;;;;;;;27.73;11.45;;;7.90;99.90;;;;;;5094769;28;20050;-78
2022/11/18 04:16:44;;;;;;;25.52;11.65;;;7.90;99.90;;;;;;5094986;28;20438;-78
2022/11/18 04:19:10;;;;;;;28.70;10.95;;;7.90;99.90;;;;;;5095320;28;20032;-76
2022/11/18 04:21:35;;;;;;;26.90;11.68;;;7.90;99.90;;;;;;5098176;28;20408;-77
2022/11/18 04:24:01;;;;;;;27.88;11.30;;;8.00;99.90;;;;;;5113881;28;20026;-77
2022/11/18 04:26:27;;;;;;;21.58;9.65;;;8.00;99.90;;;;;;5093188;28;20023;-78
2022/11/18 04:28:52;;;;;;;23.35;10.75;;;8.00;99.90;;;;;;5092918;28;20020;-78
2022/11/18 04:31:18;;;;;;;33.28;13.75;;;8.10;99.90;;;;;;5093500;28;20067;-77
2022/11/18 04:33:43;;;;;;;23.05;10.52;;;8.00;99.90;;;;;;5093143;28;20383;-78
2022/11/18 04:36:09;;;;;;;31.02;12.85;;;8.10;99.90;;;;;;5093854;28;20356;-78
2022/11/18 04:38:35;;;;;;;29.42;11.75;;;8.10;99.90;;;;;;5093247;28;20110;-79
2022/11/18 04:41:00;;;;;;;26.25;11.35;;;8.10;99.90;;;;;;5093287;28;20008;-77
2022/11/18 04:43:26;;;;;;;24.58;12.43;;;8.20;99.90;;;;;;5093414;28;20475;-77
2022/11/18 04:45:51;;;;;;;100.45;16.95;;;8.20;99.90;;;;;;5091901;28;20107;-78
2022/11/18 04:48:18;;;;;;;48.13;12.77;;;8.20;99.90;;;;;;5093385;28;20040;-77
2022/11/18 04:50:44;;;;;;;200.25;25.90;;;8.10;99.90;;;;;;5092427;28;20012;-79
2022/11/18 04:53:11;;;;;;;42.78;14.80;;;8.20;99.90;;;;;;5093520;28;20028;-78
2022/11/18 04:55:37;;;;;;;31.80;12.30;;;8.20;99.90;;;;;;5093588;28;20513;-78
2022/11/18 04:58:03;;;;;;;57.40;15.38;;;8.20;99.90;;;;;;5091793;28;20059;-77
2022/11/18 05:00:28;;;;;;;47.65;13.85;;;8.30;99.90;;;;;;5093521;28;20095;-78
2022/11/18 05:02:54;;;;;;;28.92;13.27;;;8.40;99.90;;;;;;5095071;28;20016;-78
2022/11/18 05:05:20;;;;;;;31.15;13.00;;;8.40;99.90;;;;;;5091670;28;20447;-77
2022/11/18 05:07:45;;;;;;;25.17;11.75;;;8.50;99.90;;;;;;5091844;28;20020;-77
2022/11/18 05:10:11;;;;;;;33.58;12.40;;;8.50;99.90;;;;;;5093169;28;20020;-77
2022/11/18 05:12:49;;;;;;;36.42;12.15;;;8.60;99.90;;;;;;5092968;28;20461;-77
2022/11/18 05:15:20;;;;;;;25.02;10.95;;;8.60;99.90;;;;;;5089260;28;20032;-76
2022/11/18 05:17:46;;;;;;;23.02;10.85;;;8.60;99.90;;;;;;5091874;28;20028;-78
2022/11/18 05:20:13;;;;;;;28.83;12.45;;;8.60;99.90;;;;;;5092772;28;20054;-78
2022/11/18 05:22:39;;;;;;;27.05;11.95;;;8.60;99.90;;;;;;5090747;28;20016;-78
2022/11/18 05:25:05;;;;;;;27.65;13.10;;;8.70;99.90;;;;;;5091457;28;20127;-78
2022/11/18 05:27:31;;;;;;;104.32;17.50;;;8.70;99.90;;;;;;5090587;28;20016;-78
2022/11/18 05:29:57;;;;;;;46.88;14.20;;;8.80;99.90;;;;;;5093515;28;20065;-78
2022/11/18 05:32:22;;;;;;;23.60;11.38;;;8.70;99.90;;;;;;5093724;28;20048;-78
2022/11/18 05:34:48;;;;;;;26.90;11.88;;;8.80;99.90;;;;;;5092032;28;20016;-78
2022/11/18 05:37:14;;;;;;;27.35;12.00;;;8.80;99.90;;;;;;5091356;28;20027;-77
2022/11/18 05:39:39;;;;;;;38.35;12.20;;;8.90;99.90;;;;;;5092884;28;20063;-77
2022/11/18 05:44:50;;;;;;;26.23;11.40;;;8.90;99.90;;;;;;5089518;28;20050;-78
2022/11/18 05:47:17;;;;;;;23.13;11.23;;;9.00;99.90;;;;;;5092394;28;20009;-77
2022/11/18 05:49:42;;;;;;;24.75;11.13;;;9.00;99.90;;;;;;5091571;28;20422;-78
2022/11/18 05:52:08;;;;;;;22.33;10.43;;;9.00;99.90;;;;;;5092676;28;20016;-77
2022/11/18 05:54:37;;;;;;;29.23;12.10;;;9.00;99.90;;;;;;5092234;28;20012;-77
2022/11/18 05:57:02;;;;;;;23.83;10.68;;;9.10;99.90;;;;;;5092083;28;20495;-77
2022/11/18 05:59:28;;;;;;;22.83;10.82;;;9.10;99.90;;;;;;5092417;28;20035;-78
2022/11/18 06:02:02;;;;;;;25.55;12.30;;;9.10;99.90;;;;;;5092693;28;20016;-77
2022/11/18 06:04:33;;;;;;;23.88;10.88;;;9.10;99.90;;;;;;5090663;28;20045;-77
2022/11/18 06:07:08;;;;;;;24.80;11.65;;;9.10;99.90;;;;;;5087402;28;20107;-77
2022/11/18 06:09:37;;;;;;;24.80;10.07;;;9.10;99.90;;;;;;5089253;28;20055;-78
2022/11/18 06:12:04;;;;;;;23.33;10.05;;;9.10;99.90;;;;;;5089917;28;20031;-77
2022/11/18 06:14:56;;;;;;;23.63;10.65;;;9.10;99.90;;;;;;5090444;28;20027;-79
2022/11/18 06:17:27;;;;;;;27.25;10.65;;;9.10;99.90;;;;;;5091660;28;20024;-78
2022/11/18 06:19:53;;;;;;;22.23;9.97;;;9.10;99.90;;;;;;5094047;28;20126;-78
2022/11/18 06:22:18;;;;;;;20.73;9.68;;;9.10;99.90;;;;;;5097504;28;20464;-78
2022/11/18 06:24:44;;;;;;;23.23;9.85;;;9.10;99.90;;;;;;5096285;28;20039;-77
2022/11/18 06:27:11;;;;;;;22.00;9.95;;;9.00;99.90;;;;;;5096590;28;20019;-78
2022/11/18 06:29:37;;;;;;;25.92;10.93;;;9.00;99.90;;;;;;5096208;28;20043;-77
2022/11/18 06:32:02;;;;;;;21.10;9.57;;;9.00;99.90;;;;;;5097248;28;20125;-77
2022/11/18 06:34:28;;;;;;;21.98;9.80;;;9.00;99.90;;;;;;5096455;28;20024;-77
2022/11/18 06:36:53;;;;;;;20.73;9.90;;;9.00;99.90;;;;;;5096540;28;20020;-78
2022/11/18 06:39:19;;;;;;;17.33;8.65;;;9.00;99.90;;;;;;5094017;28;20058;-78
2022/11/18 06:41:45;;;;;;;20.73;9.35;;;9.00;99.90;;;;;;5096635;28;20093;-76
2022/11/18 06:44:11;;;;;;;20.63;9.07;;;9.00;99.90;;;;;;5095886;28;20027;-76
2022/11/18 06:46:54;;;;;;;22.42;9.13;;;9.00;99.90;;;;;;5096458;28;20064;-78
2022/11/18 06:49:20;;;;;;;19.33;9.70;;;9.00;99.90;;;;;;5091315;28;20032;-77
2022/11/18 06:51:46;;;;;;;19.20;8.50;;;9.00;99.90;;;;;;5110777;28;20066;-77
2022/11/18 06:54:12;;;;;;;23.50;10.05;;;9.00;99.90;;;;;;5084324;28;20495;-78
2022/11/18 06:56:38;;;;;;;18.88;8.57;;;8.90;99.90;;;;;;5086016;28;20027;-77
2022/11/18 06:59:04;;;;;;;22.25;9.23;;;8.90;99.90;;;;;;5095346;28;20027;-77
2022/11/18 07:01:33;;;;;;;20.00;8.75;;;8.90;99.90;;;;;;5094811;28;20107;-76
2022/11/18 07:04:00;;;;;;;21.75;9.25;;;8.90;99.90;;;;;;5093886;28;20027;-77
2022/11/18 07:06:30;;;;;;;22.83;9.52;;;8.90;99.90;;;;;;5094647;28;20037;-77
2022/11/18 07:09:00;;;;;;;21.08;9.80;;;8.90;99.90;;;;;;5093925;28;20502;-77
2022/11/18 07:11:26;;;;;;;24.35;9.77;;;8.80;99.90;;;;;;5095062;28;20038;-77
2022/11/18 07:13:51;;;;;;;23.60;10.35;;;8.90;99.90;;;;;;5091662;28;20080;-77
2022/11/18 07:16:20;;;;;;;20.00;9.30;;;8.80;99.90;;;;;;5094253;28;20452;-77
2022/11/18 07:18:47;;;;;;;26.58;10.73;;;8.80;99.90;;;;;;5093296;28;20048;-77
2022/11/18 07:21:18;;;;;;;22.58;9.55;;;8.70;99.90;;;;;;5092190;28;20051;-78
2022/11/18 07:23:45;;;;;;;19.38;9.40;;;8.80;99.90;;;;;;5092554;28;20024;-78
2022/11/18 07:26:11;;;;;;;21.63;9.93;;;8.80;99.90;;;;;;5117030;28;20447;-77
2022/11/18 07:28:37;;;;;;;21.75;10.98;;;8.90;99.90;;;;;;5116789;28;20019;-77
2022/11/18 07:31:04;;;;;;;22.13;9.90;;;8.90;99.90;;;;;;5111721;28;20043;-78
2022/11/18 07:33:31;;;;;;;21.90;10.18;;;8.90;99.90;;;;;;5095681;28;20411;-78
2022/11/18 07:36:04;;;;;;;24.30;9.45;;;9.00;99.90;;;;;;5095739;28;20028;-78
2022/11/18 07:38:29;;;;;;;23.35;9.15;;;9.00;99.90;;;;;;5095754;28;20525;-77
2022/11/18 07:41:01;;;;;;;18.80;8.68;;;9.00;99.90;;;;;;5093694;28;20020;-76
2022/11/18 07:43:27;;;;;;;20.50;10.00;;;9.10;99.90;;;;;;5094774;28;20331;-76
2022/11/18 07:45:52;;;;;;;25.20;9.65;;;9.10;99.90;;;;;;5095254;28;20024;-77
2022/11/18 07:48:18;;;;;;;20.77;10.15;;;9.10;99.90;;;;;;5095572;28;20031;-77
2022/11/18 07:50:43;;;;;;;19.92;8.65;;;9.10;99.90;;;;;;5095237;28;20031;-76
2022/11/18 07:53:09;;;;;;;21.42;8.68;;;9.10;99.90;;;;;;5093571;28;20032;-77
2022/11/18 07:55:34;;;;;;;20.50;8.63;;;9.10;99.90;;;;;;5095273;28;20020;-76
2022/11/18 07:58:00;;;;;;;19.33;8.70;;;9.20;99.90;;;;;;5095476;28;20109;-77
2022/11/18 08:00:26;;;;;;;19.40;8.35;;;9.20;99.90;;;;;;5095683;28;20048;-77
2022/11/18 08:02:51;;;;;;;17.88;8.13;;;9.20;99.90;;;;;;5092925;28;20026;-77
2022/11/18 08:05:17;;;;;;;21.23;7.65;;;9.20;99.90;;;;;;5075729;28;20051;-77
2022/11/18 08:07:43;;;;;;;17.60;8.15;;;9.30;99.90;;;;;;5087226;28;20019;-77
2022/11/18 08:10:09;;;;;;;19.88;9.40;;;9.30;99.90;;;;;;5116557;28;20023;-77
2022/11/18 08:12:34;;;;;;;19.90;9.10;;;9.30;99.90;;;;;;5095058;28;20017;-76
2022/11/18 08:15:00;;;;;;;16.50;7.07;;;9.30;99.90;;;;;;5089162;28;20050;-77
2022/11/18 08:17:26;;;;;;;18.85;8.30;;;9.40;99.90;;;;;;5091590;28;20055;-78
2022/11/18 08:19:51;;;;;;;17.15;8.00;;;9.40;99.90;;;;;;5096422;28;20020;-77
2022/11/18 08:22:19;;;;;;;21.50;8.70;;;9.40;99.90;;;;;;5100518;28;20023;-77
2022/11/18 08:24:46;;;;;;;24.17;8.60;;;9.50;99.90;;;;;;5093761;28;20024;-77
2022/11/18 08:27:12;;;;;;;19.30;8.02;;;9.50;99.90;;;;;;5094938;28;20020;-77
2022/11/18 08:29:37;;;;;;;17.52;7.70;;;9.50;99.90;;;;;;5094453;28;20436;-77
2022/11/18 08:32:04;;;;;;;16.77;7.82;;;9.50;99.90;;;;;;5091117;28;20471;-77
2022/11/18 08:34:30;;;;;;;15.93;7.30;;;9.50;99.90;;;;;;5095109;28;20027;-76
2022/11/18 08:36:56;;;;;;;18.98;7.90;;;9.60;99.90;;;;;;5090403;28;20020;-78
2022/11/18 08:39:21;;;;;;;17.45;7.40;;;9.70;99.90;;;;;;5074474;28;20024;-78
2022/11/18 08:41:47;;;;;;;17.20;7.05;;;9.80;99.90;;;;;;5091115;28;20034;-77
2022/11/18 08:44:15;;;;;;;19.08;7.05;;;9.80;99.90;;;;;;5104264;28;20147;-77
2022/11/18 08:46:41;;;;;;;18.35;7.00;;;9.70;99.90;;;;;;5101087;28;20028;-77
2022/11/18 08:49:07;;;;;;;16.00;5.80;;;9.70;99.90;;;;;;5086468;28;20020;-77
2022/11/18 08:51:33;;;;;;;18.38;7.45;;;9.70;99.90;;;;;;5092003;28;20030;-76
2022/11/18 08:53:58;;;;;;;19.55;8.32;;;9.70;99.90;;;;;;5093481;28;20055;-78
2022/11/18 08:56:24;;;;;;;17.02;6.78;;;9.70;99.90;;;;;;5091820;28;20412;-76
2022/11/18 08:58:50;;;;;;;14.50;6.25;;;9.70;99.90;;;;;;5093246;28;20032;-76
2022/11/18 09:01:16;;;;;;;17.55;7.88;;;9.80;99.90;;;;;;5094439;28;20040;-77
2022/11/18 09:03:42;;;;;;;13.45;6.45;;;9.80;99.90;;;;;;5093102;28;20467;-77
2022/11/18 09:06:16;;;;;;;14.13;6.43;;;9.90;99.90;;;;;;5095092;28;20149;-77
2022/11/18 09:08:42;;;;;;;14.35;6.57;;;9.90;99.90;;;;;;5078262;28;20040;-78
2022/11/18 09:11:10;;;;;;;14.68;6.18;;;10.00;99.90;;;;;;5093186;28;20028;-78
2022/11/18 09:13:36;;;;;;;18.30;6.35;;;10.00;99.90;;;;;;5094277;28;20107;-77
2022/11/18 09:16:03;;;;;;;15.63;6.50;;;10.10;99.90;;;;;;5091489;28;20403;-78
2022/11/18 09:18:29;;;;;;;17.42;6.10;;;10.10;99.90;;;;;;5093548;28;20028;-78
2022/11/18 09:21:00;;;;;;;14.50;6.47;;;10.10;99.90;;;;;;5093684;28;20033;-77
2022/11/18 09:23:30;;;;;;;18.10;6.70;;;10.20;99.90;;;;;;5093797;28;20051;-79
2022/11/18 09:26:05;;;;;;;22.60;8.13;;;10.40;99.90;;;;;;5092243;28;20032;-78
2022/11/18 09:28:31;;;;;;;13.77;5.25;;;10.50;99.90;;;;;;5090302;28;20032;-78
2022/11/18 09:30:57;;;;;;;10.38;4.78;;;10.80;99.90;;;;;;5090156;28;20032;-76
2022/11/18 09:33:23;;;;;;;12.63;5.03;;;11.30;99.90;;;;;;5090985;28;20032;-76
2022/11/18 09:35:49;;;;;;;9.18;3.92;;;12.00;99.90;;;;;;5093201;28;20035;-78
2022/11/18 09:38:15;;;;;;;9.68;4.00;;;12.80;99.90;;;;;;5092670;28;20360;-78
2022/11/18 09:41:14;;;;;;;8.13;3.42;;;13.50;99.90;;;;;;5089826;28;20113;-76
2022/11/18 09:43:52;;;;;;;11.00;3.85;;;14.10;99.90;;;;;;5092779;28;20084;-76
2022/11/18 09:46:51;;;;;;;9.05;3.42;;;14.60;99.90;;;;;;5092461;28;20352;-76
2022/11/18 09:49:38;;;;;;;6.55;2.70;;;15.10;99.90;;;;;;5092303;28;20016;-76
2022/11/18 09:52:20;;;;;;;9.63;3.90;;;15.30;99.90;;;;;;5093297;28;20077;-78
2022/11/18 09:54:46;;;;;;;10.73;3.90;;;15.00;99.90;;;;;;5096652;28;20020;-78
2022/11/18 09:57:19;;;;;;;6.20;3.00;;;14.60;99.90;;;;;;5091689;28;20392;-76
2022/11/18 09:59:45;;;;;;;11.38;3.97;;;14.30;99.90;;;;;;5077120;28;20384;-77
2022/11/18 10:02:49;;;;;;;11.15;4.05;;;13.90;99.90;;;;;;5087073;28;20448;-76
2022/11/18 10:05:23;;;;;;;12.10;3.80;;;13.50;99.90;;;;;;5097931;28;20020;-77
2022/11/18 10:07:49;;;;;;;11.60;4.00;;;13.10;99.90;;;;;;5096630;28;20020;-77
2022/11/18 10:10:21;;;;;;;12.85;4.30;;;12.90;99.90;;;;;;5097669;28;20016;-77
2022/11/18 10:13:02;;;;;;;11.73;4.45;;;12.80;99.90;;;;;;5095015;28;20313;-77
2022/11/18 10:15:38;;;;;;;10.45;4.35;;;12.70;99.90;;;;;;5093180;28;20031;-78
2022/11/18 10:18:24;;;;;;;13.98;4.75;;;12.70;99.90;;;;;;5095477;28;20070;-78
2022/11/18 10:21:21;;;;;;;8.98;3.90;;;12.70;99.90;;;;;;5095915;28;20016;-78
2022/11/18 10:23:52;;;;;;;12.02;4.43;;;12.80;99.90;;;;;;5086648;28;20035;-78
2022/11/18 10:26:37;;;;;;;13.32;4.22;;;13.30;99.90;;;;;;5095520;28;20055;-78
2022/11/18 10:29:08;;;;;;;8.10;3.50;;;13.60;99.90;;;;;;5077052;28;20024;-78
2022/11/18 10:31:39;;;;;;;10.90;3.88;;;13.70;99.90;;;;;;5081159;28;20041;-77
2022/11/18 10:34:09;;;;;;;14.30;4.13;;;13.60;99.90;;;;;;5076803;28;20033;-78
2022/11/18 10:36:36;;;;;;;9.57;3.63;;;13.50;99.90;;;;;;5092386;27;20363;-77
2022/11/18 10:39:09;;;;;;;9.10;3.60;;;13.40;99.90;;;;;;5080534;28;20024;-77
2022/11/18 10:41:50;;;;;;;11.40;3.92;;;13.40;99.90;;;;;;5094397;28;20035;-78
2022/11/18 10:44:39;;;;;;;12.63;4.60;;;13.30;99.90;;;;;;5096649;28;20024;-76
2022/11/18 10:47:29;;;;;;;9.65;4.15;;;13.20;99.90;;;;;;5091865;28;20031;-77
2022/11/18 10:49:58;;;;;;;11.38;4.55;;;13.10;99.90;;;;;;5084511;28;20020;-78
2022/11/18 10:52:24;;;;;;;10.05;4.25;;;13.00;99.90;;;;;;5096161;28;20066;-78
2022/11/18 10:55:29;;;;;;;9.32;4.25;;;12.90;99.90;;;;;;5095523;28;20378;-77
2022/11/18 10:58:16;;;;;;;13.27;4.82;;;12.90;99.90;;;;;;5073941;28;20078;-77
2022/11/18 11:00:46;;;;;;;12.82;4.88;;;12.90;99.90;;;;;;5072548;28;20029;-78
2022/11/18 11:03:28;;;;;;;13.35;4.07;;;12.80;99.90;;;;;;5087089;28;20051;-77
2022/11/18 11:06:30;;;;;;;14.15;4.95;;;12.90;99.90;;;;;;5093376;28;20391;-78
2022/11/18 11:09:13;;;;;;;13.82;4.55;;;12.90;99.90;;;;;;5095784;28;20038;-77
2022/11/18 11:11:57;;;;;;;8.40;4.25;;;12.90;99.90;;;;;;5093985;28;20028;-77
2022/11/18 11:14:38;;;;;;;7.90;3.78;;;12.80;99.90;;;;;;5084601;28;20028;-78
2022/11/18 11:17:17;;;;;;;8.05;3.10;;;12.80;99.90;;;;;;5095704;28;20129;-77
2022/11/18 11:19:50;;;;;;;10.75;3.92;;;12.70;99.90;;;;;;5093162;28;20119;-77
2022/11/18 11:22:16;;;;;;;11.02;4.20;;;12.60;99.90;;;;;;5089446;28;20031;-77
2022/11/18 11:24:42;;;;;;;11.50;4.35;;;12.50;99.90;;;;;;5090398;28;20115;-78
2022/11/18 11:27:25;;;;;;;15.60;5.00;;;12.60;99.90;;;;;;5096162;28;20020;-77
2022/11/18 11:30:21;;;;;;;6.93;3.60;;;12.60;99.90;;;;;;5088751;28;20079;-76
2022/11/18 11:32:53;;;;;;;10.57;4.32;;;12.70;99.90;;;;;;5075262;28;20034;-77
2022/11/18 11:35:26;;;;;;;10.60;4.53;;;12.70;99.90;;;;;;5095595;28;20039;-77
2022/11/18 11:37:53;;;;;;;12.88;5.45;;;12.70;99.90;;;;;;5095651;28;20093;-77
2022/11/18 11:40:25;;;;;;;12.75;5.25;;;12.70;99.90;;;;;;5092209;28;20034;-77
2022/11/18 11:43:18;;;;;;;17.90;5.30;;;12.60;99.90;;;;;;5095850;28;20042;-77
2022/11/18 11:46:21;;;;;;;11.25;5.38;;;12.50;99.90;;;;;;5093431;28;20043;-77
2022/11/18 11:49:06;;;;;;;13.40;5.22;;;12.40;99.90;;;;;;5093739;28;20028;-78
2022/11/18 11:51:50;;;;;;;10.80;5.15;;;12.40;99.90;;;;;;5095010;28;20028;-77
2022/11/18 11:54:31;;;;;;;14.10;5.90;;;12.40;99.90;;;;;;5095492;28;20024;-77
2022/11/18 11:57:02;;;;;;;12.35;5.93;;;12.50;99.90;;;;;;5093845;28;20107;-77
2022/11/18 11:59:49;;;;;;;12.25;5.97;;;12.40;99.90;;;;;;5094072;28;20521;-76
2022/11/18 12:02:33;;;;;;;11.68;6.00;;;12.30;99.90;;;;;;5094716;28;20027;-76
2022/11/18 12:05:34;;;;;;;10.98;5.70;;;12.20;99.90;;;;;;5094474;28;20097;-78
2022/11/18 12:08:05;;;;;;;18.88;7.38;;;12.00;99.90;;;;;;5095378;28;20027;-77
2022/11/18 12:11:06;;;;;;;17.45;7.03;;;11.90;99.90;;;;;;5089955;28;20039;-77
2022/11/18 12:13:54;;;;;;;14.98;7.10;;;11.90;99.90;;;;;;5073188;28;20078;-77
2022/11/18 12:16:55;;;;;;;14.65;6.82;;;11.90;99.90;;;;;;5092584;28;20046;-77
2022/11/18 12:19:22;;;;;;;15.95;6.50;;;11.90;99.90;;;;;;5081361;28;20036;-77
2022/11/18 12:21:54;;;;;;;14.15;6.90;;;11.90;99.90;;;;;;5094437;28;20043;-77
2022/11/18 12:24:30;;;;;;;17.23;7.75;;;12.00;99.90;;;;;;5095091;28;20046;-77
2022/11/18 12:27:33;;;;;;;17.23;7.82;;;12.00;99.90;;;;;;5082105;28;20028;-77
2022/11/18 12:30:01;;;;;;;20.35;7.35;;;12.10;99.90;;;;;;5083586;28;20027;-77
2022/11/18 12:32:44;;;;;;;15.15;7.30;;;12.20;99.90;;;;;;5093705;28;20036;-77
2022/11/18 12:35:12;;;;;;;14.18;7.15;;;12.20;99.90;;;;;;5113281;28;20055;-77
2022/11/18 12:37:42;;;;;;;15.55;7.30;;;12.30;99.90;;;;;;5096295;28;20028;-77
2022/11/18 12:40:09;;;;;;;14.82;8.02;;;12.40;99.90;;;;;;5090960;28;20024;-77
2022/11/18 12:45:39;;;;;;;16.98;6.88;;;12.50;99.90;;;;;;5092119;28;20094;-77
2022/11/18 12:48:24;;;;;;;19.98;7.80;;;12.50;99.90;;;;;;5087742;28;20020;-77
2022/11/18 12:50:53;;;;;;;17.27;7.35;;;12.50;99.90;;;;;;5094017;28;20027;-77
2022/11/18 12:53:35;;;;;;;15.85;8.15;;;12.50;99.90;;;;;;5094341;28;20015;-76
2022/11/18 12:56:08;;;;;;;;;;;12.40;99.90;;;;;;5092926;28;20024;-77
2022/11/18 12:58:34;;;;;;;12.02;6.63;;;12.40;99.90;;;;;;5086724;28;19912;-77
2022/11/18 13:01:09;;;;;;;18.83;8.15;;;12.40;99.90;;;;;;5094192;28;20103;-77
2022/11/18 13:03:35;;;;;;;15.32;7.40;;;12.40;99.90;;;;;;5109433;27;20374;-78
2022/11/18 13:06:14;;;;;;;14.13;7.38;;;12.40;99.90;;;;;;5103059;28;20451;-76
2022/11/18 13:08:40;;;;;;;15.23;7.13;;;12.40;99.90;;;;;;5093670;28;20024;-76
2022/11/18 13:19:34;;;;;;;16.30;7.32;;;12.30;99.90;;;;;;5093750;28;20096;-77
2022/11/18 13:24:49;;;;;;;15.48;7.85;;;12.30;99.90;;;;;;5103805;28;20050;-77
2022/11/18 13:27:38;;;;;;;13.90;7.57;;;12.30;99.90;;;;;;5115473;28;20103;-78
2022/11/18 13:30:12;;;;;;;17.13;8.32;;;12.30;99.90;;;;;;5100601;28;20031;-78